Time;durP1;ratioP1;P1;durP2;ratioP2;P2;SDS_P1;SDS_P2;PMS_P1;PMS_P2;Temp;Humidity;BMP_temperature;BMP_pressure;BME280_temperature;BME280_humidity;BME280_pressure;Samples;Min_cycle;Max_cycle;Signal;HPM_P1;HPM_P2
2023/10/07 00:01:27;;;;;;;1999.90;999.90;;;;;;;;;;5089197;28;20186;-70
2023/10/07 00:03:58;;;;;;;1999.90;999.90;;;;;;;;;;5089248;28;20214;-73
2023/10/07 00:06:27;;;;;;;1999.90;999.90;;;;;;;;;;5089736;28;20244;-74
2023/10/07 00:08:54;;;;;;;1999.90;999.90;;;;;;;;;;5089473;28;20309;-65
2023/10/07 00:11:22;;;;;;;1999.90;999.90;;;;;;;;;;5088733;28;20202;-75
2023/10/07 00:13:54;;;;;;;1999.90;999.90;;;;;;;;;;5089069;28;20198;-72
2023/10/07 00:16:23;;;;;;;1999.90;999.90;;;;;;;;;;5087300;28;20190;-65
2023/10/07 00:18:53;;;;;;;1999.90;999.90;;;;;;;;;;5089043;28;20192;-67
2023/10/07 00:21:26;;;;;;;1999.90;999.90;;;;;;;;;;5088536;28;20273;-68
2023/10/07 00:23:54;;;;;;;1999.90;999.90;;;;;;;;;;5086116;28;20317;-70
2023/10/07 00:26:21;;;;;;;1999.90;999.90;;;;;;;;;;5089633;28;20214;-68
2023/10/07 00:28:59;;;;;;;1999.90;999.90;;;;;;;;;;5089164;28;20214;-71
2023/10/07 00:31:27;;;;;;;1999.90;999.90;;;;;;;;;;5087250;28;20198;-64
2023/10/07 00:34:04;;;;;;;1999.90;999.90;;;;;;;;;;5088393;28;20195;-73
2023/10/07 00:36:42;;;;;;;1999.90;999.90;;;;;;;;;;5068462;28;20189;-71
2023/10/07 00:39:19;;;;;;;1999.90;999.90;;;;;;;;;;5068586;28;20654;-73
2023/10/07 00:41:50;;;;;;;1999.90;999.90;;;;;;;;;;5068019;28;20536;-64
2023/10/07 00:44:21;;;;;;;1999.90;999.90;;;;;;;;;;5067590;28;20187;-72
2023/10/07 00:46:49;;;;;;;1999.90;999.90;;;;;;;;;;5068522;28;20195;-66
2023/10/07 00:49:22;;;;;;;1999.90;999.90;;;;;;;;;;5067877;28;20272;-65
2023/10/07 00:51:51;;;;;;;1999.90;999.90;;;;;;;;;;5068150;28;20183;-77
2023/10/07 00:54:30;;;;;;;1999.90;999.90;;;;;;;;;;5067272;28;20195;-75
2023/10/07 00:57:08;;;;;;;1999.90;999.90;;;;;;;;;;5069678;28;20182;-70
2023/10/07 00:59:36;;;;;;;1999.90;999.90;;;;;;;;;;5087880;28;20185;-68
2023/10/07 01:02:06;;;;;;;1999.90;999.90;;;;;;;;;;5087112;28;20312;-65
2023/10/07 01:04:40;;;;;;;1999.90;999.90;;;;;;;;;;5086761;28;20599;-64
2023/10/07 01:07:12;;;;;;;1999.90;999.90;;;;;;;;;;5087004;28;20190;-69
2023/10/07 01:09:40;;;;;;;1999.90;999.90;;;;;;;;;;5088411;28;20733;-65
2023/10/07 01:12:08;;;;;;;1999.90;999.90;;;;;;;;;;5086803;28;20186;-64
2023/10/07 01:14:41;;;;;;;1999.90;999.90;;;;;;;;;;5088145;28;20262;-64
2023/10/07 01:17:14;;;;;;;1999.90;999.90;;;;;;;;;;5087244;28;20191;-71
2023/10/07 01:19:52;;;;;;;1999.90;999.90;;;;;;;;;;5088210;28;20221;-70
2023/10/07 01:22:24;;;;;;;1999.90;999.90;;;;;;;;;;5087467;28;20248;-74
2023/10/07 01:24:55;;;;;;;1999.90;999.90;;;;;;;;;;5087582;28;20201;-68
2023/10/07 01:27:29;;;;;;;1999.90;999.90;;;;;;;;;;5085874;28;20194;-69
2023/10/07 01:30:07;;;;;;;1999.90;999.90;;;;;;;;;;5086333;28;20233;-66
2023/10/07 01:32:34;;;;;;;1999.90;999.90;;;;;;;;;;5087070;28;20283;-68
2023/10/07 01:35:05;;;;;;;1999.90;999.90;;;;;;;;;;5087438;28;20182;-67
2023/10/07 01:37:43;;;;;;;1999.90;999.90;;;;;;;;;;5087902;28;20236;-70
2023/10/07 01:40:16;;;;;;;1999.90;999.90;;;;;;;;;;5087730;28;20179;-74
2023/10/07 01:42:46;;;;;;;1999.90;999.90;;;;;;;;;;5086373;28;20186;-67
2023/10/07 01:45:22;;;;;;;1999.90;999.90;;;;;;;;;;5087710;28;20720;-65
2023/10/07 01:47:49;;;;;;;1999.90;999.90;;;;;;;;;;5086055;28;20197;-65
2023/10/07 01:50:18;;;;;;;1999.90;999.90;;;;;;;;;;5085331;28;20335;-62
2023/10/07 01:52:48;;;;;;;1999.90;999.90;;;;;;;;;;5085905;28;20634;-66
2023/10/07 01:55:16;;;;;;;1999.90;999.90;;;;;;;;;;5086060;28;20203;-64
2023/10/07 01:57:45;;;;;;;1999.90;999.90;;;;;;;;;;5086594;28;20200;-66
2023/10/07 02:00:13;;;;;;;1999.90;999.90;;;;;;;;;;5086379;28;20219;-69
2023/10/07 02:02:48;;;;;;;1999.90;999.90;;;;;;;;;;5086538;28;20673;-71
2023/10/07 02:05:16;;;;;;;1999.90;999.90;;;;;;;;;;5086736;28;20190;-67
2023/10/07 02:07:46;;;;;;;1999.90;999.90;;;;;;;;;;5086410;28;20201;-68
2023/10/07 02:10:23;;;;;;;1999.90;999.90;;;;;;;;;;5086568;28;20211;-71
2023/10/07 02:12:53;;;;;;;1999.90;999.90;;;;;;;;;;5086443;28;20191;-69
2023/10/07 02:15:20;;;;;;;1999.90;999.90;;;;;;;;;;5086236;28;20191;-71
2023/10/07 02:17:48;;;;;;;1999.90;999.90;;;;;;;;;;5085301;28;20202;-69
2023/10/07 02:20:38;;;;;;;1999.90;999.90;;;;;;;;;;5085801;28;20195;-66
2023/10/07 02:23:12;;;;;;;1999.90;999.90;;;;;;;;;;5086107;28;20234;-65
2023/10/07 02:25:42;;;;;;;1999.90;999.90;;;;;;;;;;5085791;28;20732;-67
2023/10/07 02:28:09;;;;;;;1999.90;999.90;;;;;;;;;;5085840;28;20637;-64
2023/10/07 02:30:50;;;;;;;1999.90;999.90;;;;;;;;;;5085311;28;20219;-63
2023/10/07 02:33:20;;;;;;;1999.90;999.90;;;;;;;;;;5084902;28;20191;-66
2023/10/07 02:35:54;;;;;;;1999.90;999.90;;;;;;;;;;5085638;28;20536;-65
2023/10/07 02:38:26;;;;;;;1999.90;999.90;;;;;;;;;;5085763;28;20187;-75
2023/10/07 02:40:59;;;;;;;1999.90;999.90;;;;;;;;;;5087316;28;20662;-69
2023/10/07 02:43:28;;;;;;;1999.90;999.90;;;;;;;;;;5085589;28;20182;-69
2023/10/07 02:45:59;;;;;;;1999.90;999.90;;;;;;;;;;5086597;28;20200;-75
2023/10/07 02:48:27;;;;;;;1999.90;999.90;;;;;;;;;;5086028;28;20272;-64
2023/10/07 02:50:54;;;;;;;1999.90;999.90;;;;;;;;;;5086343;28;20218;-66
2023/10/07 02:53:21;;;;;;;1999.90;999.90;;;;;;;;;;5086589;28;20219;-69
2023/10/07 02:55:54;;;;;;;1999.90;999.90;;;;;;;;;;5094698;28;20212;-64
2023/10/07 02:58:32;;;;;;;1999.90;999.90;;;;;;;;;;5087379;28;20277;-68
2023/10/07 03:01:10;;;;;;;1999.90;999.90;;;;;;;;;;5084930;28;20550;-69
2023/10/07 03:03:40;;;;;;;1999.90;999.90;;;;;;;;;;5086398;28;20734;-69
2023/10/07 03:06:08;;;;;;;1999.90;999.90;;;;;;;;;;5085817;28;20183;-68
2023/10/07 03:08:42;;;;;;;1999.90;999.90;;;;;;;;;;5085767;28;20231;-75
2023/10/07 03:11:20;;;;;;;1999.90;999.90;;;;;;;;;;5073044;28;20315;-73
2023/10/07 03:13:49;;;;;;;1999.90;999.90;;;;;;;;;;5090255;28;20516;-72
2023/10/07 03:16:29;;;;;;;1999.90;999.90;;;;;;;;;;5087642;28;20202;-66
2023/10/07 03:19:06;;;;;;;1999.90;999.90;;;;;;;;;;5090084;28;20178;-63
2023/10/07 03:21:55;;;;;;;1999.90;999.90;;;;;;;;;;5089027;28;20184;-63
2023/10/07 03:24:42;;;;;;;1999.90;999.90;;;;;;;;;;5088677;28;20613;-69
2023/10/07 03:27:26;;;;;;;1999.90;999.90;;;;;;;;;;5089594;28;20657;-72
2023/10/07 03:30:12;;;;;;;1999.90;999.90;;;;;;;;;;5090194;28;20206;-71
2023/10/07 03:35:35;;;;;;;1999.90;999.90;;;;;;;;;;5089214;28;20647;-65
2023/10/07 03:38:08;;;;;;;1999.90;999.90;;;;;;;;;;5089975;28;20225;-64
2023/10/07 03:40:37;;;;;;;1999.90;999.90;;;;;;;;;;5087974;28;20216;-66
2023/10/07 03:43:05;;;;;;;1999.90;999.90;;;;;;;;;;5089653;28;20287;-62
2023/10/07 03:45:35;;;;;;;1999.90;999.90;;;;;;;;;;5090082;28;20648;-74
2023/10/07 03:48:20;;;;;;;1999.90;999.90;;;;;;;;;;5088123;28;20653;-72
2023/10/07 03:50:48;;;;;;;1999.90;999.90;;;;;;;;;;5089432;28;20662;-67
2023/10/07 03:53:16;;;;;;;1999.90;999.90;;;;;;;;;;5089411;28;20568;-66
2023/10/07 03:55:45;;;;;;;1999.90;999.90;;;;;;;;;;5089876;28;20202;-65
2023/10/07 03:58:20;;;;;;;1999.90;999.90;;;;;;;;;;5088025;28;20603;-71
2023/10/07 04:00:49;;;;;;;1999.90;999.90;;;;;;;;;;5088734;28;20186;-64
2023/10/07 04:03:16;;;;;;;1999.90;999.90;;;;;;;;;;5089782;28;20320;-66
2023/10/07 04:05:49;;;;;;;1999.90;999.90;;;;;;;;;;5089503;28;20230;-69
2023/10/07 04:08:18;;;;;;;1999.90;999.90;;;;;;;;;;5089320;28;20257;-66
2023/10/07 04:10:47;;;;;;;1999.90;999.90;;;;;;;;;;5089631;28;20390;-69
2023/10/07 04:13:22;;;;;;;1999.90;999.90;;;;;;;;;;5089351;28;20208;-64
2023/10/07 04:15:53;;;;;;;1999.90;999.90;;;;;;;;;;5089990;28;20179;-73
2023/10/07 04:18:34;;;;;;;1999.90;999.90;;;;;;;;;;5088624;28;20190;-78
2023/10/07 04:21:02;;;;;;;1999.90;999.90;;;;;;;;;;5087302;28;20687;-71
2023/10/07 04:23:29;;;;;;;1999.90;999.90;;;;;;;;;;5088347;28;20226;-69
2023/10/07 04:26:05;;;;;;;1999.90;999.90;;;;;;;;;;5087725;28;20195;-68
2023/10/07 04:28:33;;;;;;;1999.90;999.90;;;;;;;;;;5089245;28;20176;-74
2023/10/07 04:31:09;;;;;;;1999.90;999.90;;;;;;;;;;5088649;28;20229;-64
2023/10/07 04:33:41;;;;;;;1999.90;999.90;;;;;;;;;;5089031;28;20182;-65
2023/10/07 04:36:14;;;;;;;1999.90;999.90;;;;;;;;;;5088164;28;20187;-70
2023/10/07 04:38:53;;;;;;;1999.90;999.90;;;;;;;;;;5088831;28;20918;-74
2023/10/07 04:41:32;;;;;;;1999.90;999.90;;;;;;;;;;5089029;28;20184;-79
2023/10/07 04:46:55;;;;;;;1999.90;999.90;;;;;;;;;;5089716;28;20192;-70
2023/10/07 04:49:26;;;;;;;1999.90;999.90;;;;;;;;;;5088668;28;20191;-64
2023/10/07 04:51:57;;;;;;;1999.90;999.90;;;;;;;;;;5088177;28;20182;-65
2023/10/07 04:54:24;;;;;;;1999.90;999.90;;;;;;;;;;5088485;28;20664;-73
2023/10/07 04:57:00;;;;;;;1999.90;999.90;;;;;;;;;;5088209;28;20196;-70
2023/10/07 04:59:27;;;;;;;1999.90;999.90;;;;;;;;;;5088506;28;20187;-70
2023/10/07 05:02:08;;;;;;;1999.90;999.90;;;;;;;;;;5087775;28;20902;-68
2023/10/07 05:04:34;;;;;;;1999.90;999.90;;;;;;;;;;5087434;28;20227;-76
2023/10/07 05:07:04;;;;;;;1999.90;999.90;;;;;;;;;;5087897;28;20191;-75
2023/10/07 05:09:32;;;;;;;1999.90;999.90;;;;;;;;;;5087759;28;20250;-74
2023/10/07 05:12:01;;;;;;;1999.90;999.90;;;;;;;;;;5088266;28;20191;-66
2023/10/07 05:14:27;;;;;;;1999.90;999.90;;;;;;;;;;5086849;28;20181;-73
2023/10/07 05:16:58;;;;;;;1999.90;999.90;;;;;;;;;;5088350;28;20230;-63
2023/10/07 05:19:27;;;;;;;1999.90;999.90;;;;;;;;;;5087815;28;20186;-70
2023/10/07 05:22:14;;;;;;;1999.90;999.90;;;;;;;;;;5087086;28;20226;-66
2023/10/07 05:24:41;;;;;;;1999.90;999.90;;;;;;;;;;5087678;28;20213;-75
2023/10/07 05:27:08;;;;;;;1999.90;999.90;;;;;;;;;;5087511;28;20604;-63
2023/10/07 05:29:40;;;;;;;1999.90;999.90;;;;;;;;;;5087628;28;20215;-63
2023/10/07 05:32:10;;;;;;;1999.90;999.90;;;;;;;;;;5085503;28;20241;-62
2023/10/07 05:34:37;;;;;;;1999.90;999.90;;;;;;;;;;5071610;28;20673;-73
2023/10/07 05:37:11;;;;;;;1999.90;999.90;;;;;;;;;;5087439;28;20565;-68
2023/10/07 05:39:38;;;;;;;1999.90;999.90;;;;;;;;;;5087399;28;20385;-71
2023/10/07 05:42:06;;;;;;;1999.90;999.90;;;;;;;;;;5086130;28;20187;-67
2023/10/07 05:44:34;;;;;;;1999.90;999.90;;;;;;;;;;5086398;28;20202;-76
2023/10/07 05:47:03;;;;;;;1999.90;999.90;;;;;;;;;;5087314;28;20197;-75
2023/10/07 05:49:32;;;;;;;1999.90;999.90;;;;;;;;;;5086698;28;20184;-78
2023/10/07 05:51:59;;;;;;;1999.90;999.90;;;;;;;;;;5084726;28;20214;-73
2023/10/07 05:54:28;;;;;;;1999.90;999.90;;;;;;;;;;5084682;28;20559;-67
2023/10/07 05:56:55;;;;;;;1999.90;999.90;;;;;;;;;;5086543;28;20195;-77
2023/10/07 05:59:23;;;;;;;1999.90;999.90;;;;;;;;;;5087017;28;20240;-70
2023/10/07 06:01:50;;;;;;;1999.90;999.90;;;;;;;;;;5084432;28;20192;-77
2023/10/07 06:04:19;;;;;;;1999.90;999.90;;;;;;;;;;5086523;28;20199;-68
2023/10/07 06:06:49;;;;;;;1999.90;999.90;;;;;;;;;;5084822;28;20224;-67
2023/10/07 06:09:17;;;;;;;1999.90;999.90;;;;;;;;;;5085655;28;20195;-69
2023/10/07 06:11:48;;;;;;;1999.90;999.90;;;;;;;;;;5086228;28;20226;-73
2023/10/07 06:14:18;;;;;;;1999.90;999.90;;;;;;;;;;5086757;28;20233;-74
2023/10/07 06:16:46;;;;;;;1999.90;999.90;;;;;;;;;;5086826;28;20204;-79
2023/10/07 06:19:16;;;;;;;1999.90;999.90;;;;;;;;;;5085581;28;20203;-70
2023/10/07 06:21:50;;;;;;;1999.90;999.90;;;;;;;;;;5087571;28;21001;-73
2023/10/07 06:24:21;;;;;;;1999.90;999.90;;;;;;;;;;5086053;28;20234;-70
2023/10/07 06:26:49;;;;;;;1999.90;999.90;;;;;;;;;;5086834;28;20594;-74
2023/10/07 06:29:19;;;;;;;1999.90;999.90;;;;;;;;;;5086554;28;20206;-73
2023/10/07 06:31:54;;;;;;;1999.90;999.90;;;;;;;;;;5084753;28;20306;-73
2023/10/07 06:34:25;;;;;;;1999.90;999.90;;;;;;;;;;5086827;28;20203;-73
2023/10/07 06:36:54;;;;;;;1999.90;999.90;;;;;;;;;;5086501;28;20191;-67
2023/10/07 06:39:27;;;;;;;1999.90;999.90;;;;;;;;;;5085442;28;20197;-73
2023/10/07 06:41:56;;;;;;;1999.90;999.90;;;;;;;;;;5085326;28;20382;-68
2023/10/07 06:44:24;;;;;;;1999.90;999.90;;;;;;;;;;5085616;28;20265;-69
2023/10/07 06:46:55;;;;;;;1999.90;999.90;;;;;;;;;;5085386;28;20659;-69
2023/10/07 06:49:23;;;;;;;1999.90;999.90;;;;;;;;;;5085326;28;20296;-61
2023/10/07 06:51:52;;;;;;;1999.90;999.90;;;;;;;;;;5085665;28;20720;-64
2023/10/07 06:54:20;;;;;;;1999.90;999.90;;;;;;;;;;5085003;28;20324;-67
2023/10/07 06:56:50;;;;;;;1999.90;999.90;;;;;;;;;;5085042;28;20279;-70
2023/10/07 06:59:18;;;;;;;1999.90;999.90;;;;;;;;;;5083912;28;20244;-65
2023/10/07 07:01:53;;;;;;;1999.90;999.90;;;;;;;;;;5085178;28;20202;-68
2023/10/07 07:04:22;;;;;;;1999.90;999.90;;;;;;;;;;5083975;28;20276;-64
2023/10/07 07:07:05;;;;;;;1999.90;999.90;;;;;;;;;;5084603;28;20194;-66
2023/10/07 07:09:51;;;;;;;1999.90;999.90;;;;;;;;;;5065715;28;20535;-68
2023/10/07 07:12:22;;;;;;;1999.90;999.90;;;;;;;;;;5064557;28;20202;-69
2023/10/07 07:14:59;;;;;;;1999.90;999.90;;;;;;;;;;5064612;28;20660;-69
2023/10/07 07:17:30;;;;;;;1999.90;999.90;;;;;;;;;;5064998;28;20655;-67
2023/10/07 07:22:42;;;;;;;1999.90;999.90;;;;;;;;;;5064687;28;20270;-62
2023/10/07 07:25:12;;;;;;;1999.90;999.90;;;;;;;;;;5064588;28;20238;-64
2023/10/07 07:27:48;;;;;;;1999.90;999.90;;;;;;;;;;5063601;28;20209;-63
2023/10/07 07:30:19;;;;;;;1999.90;999.90;;;;;;;;;;5064718;28;20196;-70
2023/10/07 07:32:55;;;;;;;1999.90;999.90;;;;;;;;;;5064553;28;20717;-63
2023/10/07 07:35:38;;;;;;;1999.90;999.90;;;;;;;;;;5085356;28;20188;-66
2023/10/07 07:38:12;;;;;;;1999.90;999.90;;;;;;;;;;5084334;28;20222;-64
2023/10/07 07:40:42;;;;;;;1999.90;999.90;;;;;;;;;;5085042;28;20181;-63
2023/10/07 07:43:13;;;;;;;1999.90;999.90;;;;;;;;;;5084410;28;20184;-61
2023/10/07 07:45:40;;;;;;;1999.90;999.90;;;;;;;;;;5084594;28;20594;-62
2023/10/07 07:48:10;;;;;;;1999.90;999.90;;;;;;;;;;5085378;28;20232;-67
2023/10/07 07:50:41;;;;;;;1999.90;999.90;;;;;;;;;;5084870;28;20217;-63
2023/10/07 07:53:09;;;;;;;1999.90;999.90;;;;;;;;;;5084810;28;20223;-65
2023/10/07 07:55:41;;;;;;;1999.90;999.90;;;;;;;;;;5088153;28;20277;-68
2023/10/07 07:58:10;;;;;;;1999.90;999.90;;;;;;;;;;5086893;28;20198;-63
2023/10/07 08:00:44;;;;;;;1999.90;999.90;;;;;;;;;;5088463;28;20287;-62
2023/10/07 08:03:11;;;;;;;1999.90;999.90;;;;;;;;;;5088042;28;20183;-65
2023/10/07 08:05:41;;;;;;;1999.90;999.90;;;;;;;;;;5089185;28;20182;-65
2023/10/07 08:08:19;;;;;;;1999.90;999.90;;;;;;;;;;5086344;28;20284;-68
2023/10/07 08:10:47;;;;;;;1999.90;999.90;;;;;;;;;;5088090;28;20287;-65
2023/10/07 08:13:17;;;;;;;1999.90;999.90;;;;;;;;;;5086101;28;20195;-66
2023/10/07 08:15:48;;;;;;;1999.90;999.90;;;;;;;;;;5088615;28;20225;-64
2023/10/07 08:18:15;;;;;;;1999.90;999.90;;;;;;;;;;5088611;28;20187;-62
2023/10/07 08:20:44;;;;;;;1999.90;999.90;;;;;;;;;;5088115;28;20202;-66
2023/10/07 08:23:22;;;;;;;1999.90;999.90;;;;;;;;;;5087980;28;20217;-61
2023/10/07 08:25:57;;;;;;;1999.90;999.90;;;;;;;;;;5087652;28;20199;-65
2023/10/07 08:28:39;;;;;;;1999.90;999.90;;;;;;;;;;5087884;28;20183;-62
2023/10/07 08:31:13;;;;;;;1999.90;999.90;;;;;;;;;;5086449;28;20218;-61
2023/10/07 08:33:41;;;;;;;1999.90;999.90;;;;;;;;;;5087796;28;20198;-68
2023/10/07 08:36:08;;;;;;;1999.90;999.90;;;;;;;;;;5086250;28;20205;-63
2023/10/07 08:38:43;;;;;;;1999.90;999.90;;;;;;;;;;5087895;28;20195;-63
2023/10/07 08:41:16;;;;;;;1999.90;999.90;;;;;;;;;;5087598;28;20189;-65
2023/10/07 08:43:45;;;;;;;1999.90;999.90;;;;;;;;;;5087390;28;20903;-67
2023/10/07 08:46:15;;;;;;;1999.90;999.90;;;;;;;;;;5087295;28;20200;-68
2023/10/07 08:48:49;;;;;;;1999.90;999.90;;;;;;;;;;5088389;28;20537;-67
2023/10/07 08:51:21;;;;;;;1999.90;999.90;;;;;;;;;;5087157;28;20214;-66
2023/10/07 08:53:49;;;;;;;1999.90;999.90;;;;;;;;;;5087883;28;20723;-68
2023/10/07 08:56:18;;;;;;;1999.90;999.90;;;;;;;;;;5087288;28;20194;-70
2023/10/07 08:58:49;;;;;;;1999.90;999.90;;;;;;;;;;5087133;28;20188;-64
2023/10/07 09:01:19;;;;;;;1999.90;999.90;;;;;;;;;;5087412;28;20224;-65
2023/10/07 09:03:49;;;;;;;1999.90;999.90;;;;;;;;;;5086514;28;20190;-62
2023/10/07 09:06:19;;;;;;;1999.90;999.90;;;;;;;;;;5086221;28;20468;-66
2023/10/07 09:08:46;;;;;;;1999.90;999.90;;;;;;;;;;5086873;28;20239;-67
2023/10/07 09:11:18;;;;;;;1999.90;999.90;;;;;;;;;;5086947;28;20601;-67
2023/10/07 09:13:47;;;;;;;1999.90;999.90;;;;;;;;;;5086442;28;20178;-65
2023/10/07 09:16:14;;;;;;;1999.90;999.90;;;;;;;;;;5085586;28;20203;-68
2023/10/07 09:18:44;;;;;;;1999.90;999.90;;;;;;;;;;5086037;28;20552;-65
2023/10/07 09:21:19;;;;;;;1999.90;999.90;;;;;;;;;;5086561;28;20190;-67
2023/10/07 09:23:48;;;;;;;1999.90;999.90;;;;;;;;;;5086819;28;20245;-69
2023/10/07 09:26:30;;;;;;;1999.90;999.90;;;;;;;;;;5084705;28;20661;-68
2023/10/07 09:28:59;;;;;;;1999.90;999.90;;;;;;;;;;5086616;28;20199;-68
2023/10/07 09:31:27;;;;;;;1999.90;999.90;;;;;;;;;;5085232;28;20233;-65
2023/10/07 09:34:09;;;;;;;1999.90;999.90;;;;;;;;;;5085897;28;20319;-62
2023/10/07 09:36:40;;;;;;;1999.90;999.90;;;;;;;;;;5082501;28;20191;-68
2023/10/07 09:39:33;;;;;;;1999.90;999.90;;;;;;;;;;5065767;28;20176;-64
2023/10/07 09:42:25;;;;;;;1999.90;999.90;;;;;;;;;;5065543;28;20584;-64
2023/10/07 09:44:53;;;;;;;1999.90;999.90;;;;;;;;;;5066470;28;20191;-63
2023/10/07 09:47:21;;;;;;;1999.90;999.90;;;;;;;;;;5065759;28;20195;-64
2023/10/07 09:49:57;;;;;;;1999.90;999.90;;;;;;;;;;5065422;28;20194;-68
2023/10/07 09:52:30;;;;;;;1999.90;999.90;;;;;;;;;;5065545;28;20606;-65
2023/10/07 09:55:19;;;;;;;1999.90;999.90;;;;;;;;;;5065411;28;20630;-64
2023/10/07 09:58:00;;;;;;;1999.90;999.90;;;;;;;;;;5074986;28;20639;-65
2023/10/07 10:00:41;;;;;;;1999.90;999.90;;;;;;;;;;5085917;28;20179;-66
2023/10/07 10:03:39;;;;;;;1999.90;999.90;;;;;;;;;;5085624;28;20190;-67
2023/10/07 10:06:18;;;;;;;1999.90;999.90;;;;;;;;;;5042704;28;20195;-63
2023/10/07 10:08:57;;;;;;;1999.90;999.90;;;;;;;;;;5079581;28;20216;-66
2023/10/07 10:11:31;;;;;;;1999.90;999.90;;;;;;;;;;5084967;28;20702;-67
2023/10/07 10:14:16;;;;;;;1999.90;999.90;;;;;;;;;;5085589;28;20193;-65
2023/10/07 10:16:47;;;;;;;1999.90;999.90;;;;;;;;;;5085554;28;20171;-67
2023/10/07 10:19:25;;;;;;;1999.90;999.90;;;;;;;;;;5083981;28;20202;-67
2023/10/07 10:21:56;;;;;;;1999.90;999.90;;;;;;;;;;5085417;28;20236;-64
2023/10/07 10:24:24;;;;;;;1999.90;999.90;;;;;;;;;;5085888;28;20222;-66
2023/10/07 10:26:51;;;;;;;1999.90;999.90;;;;;;;;;;5086089;28;20186;-62
2023/10/07 10:29:25;;;;;;;1999.90;999.90;;;;;;;;;;5085824;28;20301;-62
2023/10/07 10:31:58;;;;;;;1999.90;999.90;;;;;;;;;;5085302;28;20557;-70
2023/10/07 10:34:26;;;;;;;1999.90;999.90;;;;;;;;;;5085126;28;20265;-68
2023/10/07 10:36:57;;;;;;;1999.90;999.90;;;;;;;;;;5085833;28;20194;-72
2023/10/07 10:39:25;;;;;;;1999.90;999.90;;;;;;;;;;5083889;28;20615;-70
2023/10/07 10:41:53;;;;;;;1999.90;999.90;;;;;;;;;;5085961;28;20236;-65
2023/10/07 10:44:21;;;;;;;1999.90;999.90;;;;;;;;;;5083414;28;20198;-67
2023/10/07 10:46:49;;;;;;;1999.90;999.90;;;;;;;;;;5085952;28;20259;-62
2023/10/07 10:49:17;;;;;;;1999.90;999.90;;;;;;;;;;5085149;28;20194;-67
2023/10/07 10:51:48;;;;;;;1999.90;999.90;;;;;;;;;;5084821;28;20545;-65
2023/10/07 10:54:18;;;;;;;1999.90;999.90;;;;;;;;;;5084888;28;20175;-69
2023/10/07 10:56:49;;;;;;;1999.90;999.90;;;;;;;;;;5085227;28;20201;-66
2023/10/07 10:59:16;;;;;;;1999.90;999.90;;;;;;;;;;5085576;28;20182;-65
2023/10/07 11:01:44;;;;;;;1999.90;999.90;;;;;;;;;;5084754;28;20194;-66
2023/10/07 11:04:13;;;;;;;1999.90;999.90;;;;;;;;;;5084585;28;20213;-65
2023/10/07 11:06:41;;;;;;;1999.90;999.90;;;;;;;;;;5085393;28;20661;-66
2023/10/07 11:09:09;;;;;;;1999.90;999.90;;;;;;;;;;5084292;28;20315;-63
2023/10/07 11:11:38;;;;;;;1999.90;999.90;;;;;;;;;;5085309;28;20206;-63
2023/10/07 11:14:13;;;;;;;1999.90;999.90;;;;;;;;;;5083270;28;20205;-64
2023/10/07 11:16:46;;;;;;;1999.90;999.90;;;;;;;;;;5085198;28;20185;-64
2023/10/07 11:19:14;;;;;;;1999.90;999.90;;;;;;;;;;5084604;28;20272;-67
2023/10/07 11:21:44;;;;;;;1999.90;999.90;;;;;;;;;;5084497;28;20194;-63
2023/10/07 11:24:15;;;;;;;1999.90;999.90;;;;;;;;;;5083027;28;20590;-64
2023/10/07 11:26:49;;;;;;;1999.90;999.90;;;;;;;;;;5084914;28;20190;-67
2023/10/07 11:29:18;;;;;;;1999.90;999.90;;;;;;;;;;5086086;28;20170;-66
2023/10/07 11:31:46;;;;;;;1999.90;999.90;;;;;;;;;;5088650;28;20685;-68
2023/10/07 11:34:14;;;;;;;1999.90;999.90;;;;;;;;;;5088891;28;20607;-65
2023/10/07 11:36:45;;;;;;;1999.90;999.90;;;;;;;;;;5088539;28;20218;-69
2023/10/07 11:39:13;;;;;;;1999.90;999.90;;;;;;;;;;5087185;28;20208;-66
2023/10/07 11:41:41;;;;;;;1999.90;999.90;;;;;;;;;;5088596;28;20190;-67
2023/10/07 11:44:11;;;;;;;1999.90;999.90;;;;;;;;;;5086526;28;20226;-67
2023/10/07 11:46:40;;;;;;;1999.90;999.90;;;;;;;;;;5089204;28;20679;-66
2023/10/07 11:49:08;;;;;;;1999.90;999.90;;;;;;;;;;5086918;28;20276;-65
2023/10/07 11:51:35;;;;;;;1999.90;999.90;;;;;;;;;;5088777;28;20198;-67
2023/10/07 11:54:03;;;;;;;1999.90;999.90;;;;;;;;;;5088386;28;20192;-65
2023/10/07 11:56:31;;;;;;;1999.90;999.90;;;;;;;;;;5088235;28;20537;-68
2023/10/07 11:58:58;;;;;;;1999.90;999.90;;;;;;;;;;5088820;28;20247;-67
2023/10/07 12:01:27;;;;;;;1999.90;999.90;;;;;;;;;;5086309;28;20205;-69
2023/10/07 12:03:54;;;;;;;1999.90;999.90;;;;;;;;;;5088466;28;20192;-67
2023/10/07 12:06:24;;;;;;;1999.90;999.90;;;;;;;;;;5087646;28;20194;-66
2023/10/07 12:08:52;;;;;;;1999.90;999.90;;;;;;;;;;5088923;28;20190;-65
2023/10/07 12:11:20;;;;;;;1999.90;999.90;;;;;;;;;;5087937;28;20228;-70
2023/10/07 12:13:47;;;;;;;1999.90;999.90;;;;;;;;;;5087750;28;20417;-68
2023/10/07 12:16:16;;;;;;;1999.90;999.90;;;;;;;;;;5087867;28;20289;-67
2023/10/07 12:18:48;;;;;;;1999.90;999.90;;;;;;;;;;5088284;28;20578;-70
2023/10/07 12:21:17;;;;;;;1999.90;999.90;;;;;;;;;;5086507;28;20194;-67
2023/10/07 12:23:44;;;;;;;1999.90;999.90;;;;;;;;;;5087547;28;20282;-67
2023/10/07 12:26:13;;;;;;;1999.90;999.90;;;;;;;;;;5086646;28;21038;-65
2023/10/07 12:28:41;;;;;;;1999.90;999.90;;;;;;;;;;5088059;28;20264;-66
2023/10/07 12:31:12;;;;;;;1999.90;999.90;;;;;;;;;;5086914;28;20668;-68
2023/10/07 12:33:40;;;;;;;1999.90;999.90;;;;;;;;;;5085974;28;20224;-67
2023/10/07 12:36:14;;;;;;;1999.90;999.90;;;;;;;;;;5085932;28;20220;-64
2023/10/07 12:38:42;;;;;;;1999.90;999.90;;;;;;;;;;5081702;28;20283;-69
2023/10/07 12:41:09;;;;;;;1999.90;999.90;;;;;;;;;;5081972;28;20195;-70
2023/10/07 12:43:38;;;;;;;1999.90;999.90;;;;;;;;;;5087071;28;20202;-73
2023/10/07 12:46:09;;;;;;;1999.90;999.90;;;;;;;;;;5086336;28;20202;-69
2023/10/07 12:48:37;;;;;;;1999.90;999.90;;;;;;;;;;5087778;28;20187;-69
2023/10/07 12:51:05;;;;;;;1999.90;999.90;;;;;;;;;;5089153;28;20193;-67
2023/10/07 12:53:34;;;;;;;1999.90;999.90;;;;;;;;;;5107546;28;20243;-69
2023/10/07 12:56:13;;;;;;;1999.90;999.90;;;;;;;;;;5106284;28;20208;-72
2023/10/07 12:58:42;;;;;;;1999.90;999.90;;;;;;;;;;5078216;28;20244;-69
2023/10/07 13:01:12;;;;;;;1999.90;999.90;;;;;;;;;;5067323;28;20194;-71
2023/10/07 13:03:43;;;;;;;1999.90;999.90;;;;;;;;;;5066344;28;20253;-64
2023/10/07 13:06:11;;;;;;;1999.90;999.90;;;;;;;;;;5067063;28;20195;-71
2023/10/07 13:08:39;;;;;;;1999.90;999.90;;;;;;;;;;5080424;28;20224;-66
2023/10/07 13:11:11;;;;;;;1999.90;999.90;;;;;;;;;;5086732;28;20197;-64
2023/10/07 13:13:39;;;;;;;1999.90;999.90;;;;;;;;;;5086430;28;20229;-69
2023/10/07 13:16:10;;;;;;;1999.90;999.90;;;;;;;;;;5085531;28;20205;-70
2023/10/07 13:18:38;;;;;;;1999.90;999.90;;;;;;;;;;5086873;28;20502;-68
2023/10/07 13:21:13;;;;;;;1999.90;999.90;;;;;;;;;;5087208;28;20200;-66
2023/10/07 13:23:42;;;;;;;1999.90;999.90;;;;;;;;;;5084206;28;20217;-68
2023/10/07 13:26:10;;;;;;;1999.90;999.90;;;;;;;;;;5085894;28;20206;-69
2023/10/07 13:28:38;;;;;;;1999.90;999.90;;;;;;;;;;5086000;28;20194;-67
2023/10/07 13:31:07;;;;;;;1999.90;999.90;;;;;;;;;;5086923;28;20194;-67
2023/10/07 13:33:36;;;;;;;1999.90;999.90;;;;;;;;;;5085762;28;20209;-67
2023/10/07 13:36:03;;;;;;;1999.90;999.90;;;;;;;;;;5085234;28;20221;-72
2023/10/07 13:38:31;;;;;;;1999.90;999.90;;;;;;;;;;5085138;28;20251;-71
2023/10/07 13:41:01;;;;;;;1999.90;999.90;;;;;;;;;;5086661;28;20198;-72
2023/10/07 13:43:29;;;;;;;1999.90;999.90;;;;;;;;;;5085787;28;20198;-69
2023/10/07 13:45:56;;;;;;;1999.90;999.90;;;;;;;;;;5086447;28;20277;-72
2023/10/07 13:48:24;;;;;;;1999.90;999.90;;;;;;;;;;5086560;28;20202;-71
2023/10/07 13:50:51;;;;;;;1999.90;999.90;;;;;;;;;;5086792;28;20226;-67
2023/10/07 13:53:28;;;;;;;1999.90;999.90;;;;;;;;;;5086034;28;20210;-65
2023/10/07 13:55:55;;;;;;;1999.90;999.90;;;;;;;;;;5084974;28;20614;-70
2023/10/07 13:58:24;;;;;;;1999.90;999.90;;;;;;;;;;5085544;28;20202;-65
2023/10/07 14:00:54;;;;;;;1999.90;999.90;;;;;;;;;;5086715;28;20228;-68
2023/10/07 14:03:23;;;;;;;1999.90;999.90;;;;;;;;;;5085819;28;20179;-67
2023/10/07 14:05:55;;;;;;;1999.90;999.90;;;;;;;;;;5086213;28;20639;-67
2023/10/07 14:08:24;;;;;;;1999.90;999.90;;;;;;;;;;5086016;28;20189;-66
2023/10/07 14:10:51;;;;;;;1999.90;999.90;;;;;;;;;;5086384;28;20198;-66
2023/10/07 14:13:23;;;;;;;1999.90;999.90;;;;;;;;;;5085181;28;20212;-67